sensor_id;sensor_type;location;lat;lon;timestamp;temperature;humidity
9939;DHT22;5008;50.656;7.188;2023-01-24T05:00:39;4.20;99.90
9939;DHT22;5008;50.656;7.188;2023-01-24T05:03:06;4.20;99.90
9939;DHT22;5008;50.656;7.188;2023-01-24T05:05:32;4.20;99.90
9939;DHT22;5008;50.656;7.188;2023-01-24T05:07:59;4.10;99.90
9939;DHT22;5008;50.656;7.188;2023-01-24T05:10:28;4.10;99.90
9939;DHT22;5008;50.656;7.188;2023-01-24T05:13:00;4.20;99.90
9939;DHT22;5008;50.656;7.188;2023-01-24T05:15:28;4.10;99.90
9939;DHT22;5008;50.656;7.188;2023-01-24T05:17:56;4.10;99.90
9939;DHT22;5008;50.656;7.188;2023-01-24T05:20:23;4.10;99.90
9939;DHT22;5008;50.656;7.188;2023-01-24T05:22:50;4.00;99.90
9939;DHT22;5008;50.656;7.188;2023-01-24T05:25:17;4.00;99.90
9939;DHT22;5008;50.656;7.188;2023-01-24T05:27:44;4.00;99.90
9939;DHT22;5008;50.656;7.188;2023-01-24T05:30:11;4.00;99.90
9939;DHT22;5008;50.656;7.188;2023-01-24T05:32:38;4.10;99.90
9939;DHT22;5008;50.656;7.188;2023-01-24T05:35:08;4.00;99.90
9939;DHT22;5008;50.656;7.188;2023-01-24T05:37:36;4.00;99.90
9939;DHT22;5008;50.656;7.188;2023-01-24T05:40:04;4.00;99.90
9939;DHT22;5008;50.656;7.188;2023-01-24T05:42:31;4.00;99.90
9939;DHT22;5008;50.656;7.188;2023-01-24T05:44:58;4.00;99.90
9939;DHT22;5008;50.656;7.188;2023-01-24T05:47:26;4.10;99.90
9939;DHT22;5008;50.656;7.188;2023-01-24T05:49:53;4.00;99.90
9939;DHT22;5008;50.656;7.188;2023-01-24T05:52:21;4.00;99.90
9939;DHT22;5008;50.656;7.188;2023-01-24T05:54:48;4.00;99.90
9939;DHT22;5008;50.656;7.188;2023-01-24T05:57:15;4.00;99.90
9939;DHT22;5008;50.656;7.188;2023-01-24T05:59:42;4.00;99.90
9939;DHT22;5008;50.656;7.188;2023-01-24T06:02:09;4.00;99.90
9939;DHT22;5008;50.656;7.188;2023-01-24T06:04:35;3.90;99.90
9939;DHT22;5008;50.656;7.188;2023-01-24T06:07:02;4.00;99.90
9939;DHT22;5008;50.656;7.188;2023-01-24T06:09:30;4.00;99.90
9939;DHT22;5008;50.656;7.188;2023-01-24T06:11:57;3.90;99.90
9939;DHT22;5008;50.656;7.188;2023-01-24T06:14:24;3.90;99.90
9939;DHT22;5008;50.656;7.188;2023-01-24T06:16:51;4.00;99.90
9939;DHT22;5008;50.656;7.188;2023-01-24T06:19:18;4.00;99.90
9939;DHT22;5008;50.656;7.188;2023-01-24T06:21:47;4.00;99.90
9939;DHT22;5008;50.656;7.188;2023-01-24T06:24:17;4.00;99.90
9939;DHT22;5008;50.656;7.188;2023-01-24T06:26:47;4.00;99.90
9939;DHT22;5008;50.656;7.188;2023-01-24T06:29:15;4.00;99.90
9939;DHT22;5008;50.656;7.188;2023-01-24T06:31:50;4.10;99.90
9939;DHT22;5008;50.656;7.188;2023-01-24T06:34:38;4.00;99.90
9939;DHT22;5008;50.656;7.188;2023-01-24T06:37:13;4.00;99.90
9939;DHT22;5008;50.656;7.188;2023-01-24T06:39:48;4.00;99.90
9939;DHT22;5008;50.656;7.188;2023-01-24T06:42:17;4.10;99.90
9939;DHT22;5008;50.656;7.188;2023-01-24T06:44:44;4.00;99.90
9939;DHT22;5008;50.656;7.188;2023-01-24T06:47:11;4.00;99.90
9939;DHT22;5008;50.656;7.188;2023-01-24T06:49:39;4.10;99.90
9939;DHT22;5008;50.656;7.188;2023-01-24T06:52:06;4.10;99.90
9939;DHT22;5008;50.656;7.188;2023-01-24T06:54:34;4.10;99.90
9939;DHT22;5008;50.656;7.188;2023-01-24T06:57:02;4.10;99.90
9939;DHT22;5008;50.656;7.188;2023-01-24T06:59:30;4.10;99.90
9939;DHT22;5008;50.656;7.188;2023-01-24T07:01:57;4.00;99.90
9939;DHT22;5008;50.656;7.188;2023-01-24T07:04:32;4.00;99.90
9939;DHT22;5008;50.656;7.188;2023-01-24T07:07:17;4.10;99.90
9939;DHT22;5008;50.656;7.188;2023-01-24T07:09:44;4.10;99.90
9939;DHT22;5008;50.656;7.188;2023-01-24T07:12:11;4.10;99.90
9939;DHT22;5008;50.656;7.188;2023-01-24T07:14:39;4.10;99.90
9939;DHT22;5008;50.656;7.188;2023-01-24T07:17:06;4.00;99.90
9939;DHT22;5008;50.656;7.188;2023-01-24T07:19:33;4.00;99.90
9939;DHT22;5008;50.656;7.188;2023-01-24T07:22:00;4.00;99.90
9939;DHT22;5008;50.656;7.188;2023-01-24T07:24:29;4.00;99.90
9939;DHT22;5008;50.656;7.188;2023-01-24T07:26:57;3.90;99.90
9939;DHT22;5008;50.656;7.188;2023-01-24T07:29:24;3.90;99.90
9939;DHT22;5008;50.656;7.188;2023-01-24T07:31:52;3.90;99.90
9939;DHT22;5008;50.656;7.188;2023-01-24T07:34:20;4.00;99.90
9939;DHT22;5008;50.656;7.188;2023-01-24T07:36:47;3.90;99.90
9939;DHT22;5008;50.656;7.188;2023-01-24T07:39:14;4.00;99.90
9939;DHT22;5008;50.656;7.188;2023-01-24T07:41:41;3.90;99.90
9939;DHT22;5008;50.656;7.188;2023-01-24T07:44:09;3.90;99.90
9939;DHT22;5008;50.656;7.188;2023-01-24T07:46:36;3.90;99.90
9939;DHT22;5008;50.656;7.188;2023-01-24T07:49:05;3.90;99.90
9939;DHT22;5008;50.656;7.188;2023-01-24T07:51:31;4.00;99.90
9939;DHT22;5008;50.656;7.188;2023-01-24T07:53:58;3.90;99.90
9939;DHT22;5008;50.656;7.188;2023-01-24T07:56:25;3.90;99.90
9939;DHT22;5008;50.656;7.188;2023-01-24T07:58:52;4.00;99.90
9939;DHT22;5008;50.656;7.188;2023-01-24T08:01:21;4.00;99.90
9939;DHT22;5008;50.656;7.188;2023-01-24T08:03:48;4.00;99.90
9939;DHT22;5008;50.656;7.188;2023-01-24T08:06:17;4.00;99.90
9939;DHT22;5008;50.656;7.188;2023-01-24T08:08:44;4.00;99.90
9939;DHT22;5008;50.656;7.188;2023-01-24T08:11:10;4.00;99.90
9939;DHT22;5008;50.656;7.188;2023-01-24T08:13:41;4.00;99.90
9939;DHT22;5008;50.656;7.188;2023-01-24T08:16:08;4.00;99.90
9939;DHT22;5008;50.656;7.188;2023-01-24T08:18:37;4.00;99.90
9939;DHT22;5008;50.656;7.188;2023-01-24T08:21:04;4.00;99.90
9939;DHT22;5008;50.656;7.188;2023-01-24T08:23:32;4.00;99.90
9939;DHT22;5008;50.656;7.188;2023-01-24T08:25:59;4.00;99.90
9939;DHT22;5008;50.656;7.188;2023-01-24T08:28:26;4.10;99.90
9939;DHT22;5008;50.656;7.188;2023-01-24T08:30:56;4.20;99.90
9939;DHT22;5008;50.656;7.188;2023-01-24T08:33:23;4.20;99.90
9939;DHT22;5008;50.656;7.188;2023-01-24T08:35:50;4.10;99.90
9939;DHT22;5008;50.656;7.188;2023-01-24T08:38:17;4.20;99.90
9939;DHT22;5008;50.656;7.188;2023-01-24T08:40:45;4.20;99.90
9939;DHT22;5008;50.656;7.188;2023-01-24T08:43:13;4.10;99.90
9939;DHT22;5008;50.656;7.188;2023-01-24T08:45:40;4.10;99.90
9939;DHT22;5008;50.656;7.188;2023-01-24T08:48:07;4.20;99.90
9939;DHT22;5008;50.656;7.188;2023-01-24T08:50:34;4.20;99.90
9939;DHT22;5008;50.656;7.188;2023-01-24T08:53:01;4.20;99.90
9939;DHT22;5008;50.656;7.188;2023-01-24T08:55:28;4.20;99.90
9939;DHT22;5008;50.656;7.188;2023-01-24T08:58:23;4.30;99.90
9939;DHT22;5008;50.656;7.188;2023-01-24T09:00:51;4.30;99.90
9939;DHT22;5008;50.656;7.188;2023-01-24T09:03:18;4.30;99.90
9939;DHT22;5008;50.656;7.188;2023-01-24T09:05:45;4.60;99.90
9939;DHT22;5008;50.656;7.188;2023-01-24T09:08:12;5.90;99.90
9939;DHT22;5008;50.656;7.188;2023-01-24T09:10:38;5.40;99.90
9939;DHT22;5008;50.656;7.188;2023-01-24T09:13:05;5.30;99.90
9939;DHT22;5008;50.656;7.188;2023-01-24T09:15:33;5.40;99.90
9939;DHT22;5008;50.656;7.188;2023-01-24T09:18:00;9.20;99.90
9939;DHT22;5008;50.656;7.188;2023-01-24T09:20:28;8.20;99.90
9939;DHT22;5008;50.656;7.188;2023-01-24T09:22:54;7.20;99.90
9939;DHT22;5008;50.656;7.188;2023-01-24T09:25:21;6.40;99.90
9939;DHT22;5008;50.656;7.188;2023-01-24T09:27:52;5.80;99.90
9939;DHT22;5008;50.656;7.188;2023-01-24T09:30:20;5.50;99.90
9939;DHT22;5008;50.656;7.188;2023-01-24T09:32:48;5.30;99.90
9939;DHT22;5008;50.656;7.188;2023-01-24T09:35:15;5.20;99.90
9939;DHT22;5008;50.656;7.188;2023-01-24T09:37:42;5.00;99.90
9939;DHT22;5008;50.656;7.188;2023-01-24T09:40:18;5.00;99.90
9939;DHT22;5008;50.656;7.188;2023-01-24T09:42:57;5.00;99.90
9939;DHT22;5008;50.656;7.188;2023-01-24T09:45:30;4.90;99.90
9939;DHT22;5008;50.656;7.188;2023-01-24T09:48:01;4.70;99.90
9939;DHT22;5008;50.656;7.188;2023-01-24T09:50:37;4.70;99.90
9939;DHT22;5008;50.656;7.188;2023-01-24T09:53:05;4.80;99.90
9939;DHT22;5008;50.656;7.188;2023-01-24T09:55:40;4.80;99.90
9939;DHT22;5008;50.656;7.188;2023-01-24T09:58:18;4.70;99.90
9939;DHT22;5008;50.656;7.188;2023-01-24T10:00:56;4.80;99.90
9939;DHT22;5008;50.656;7.188;2023-01-24T10:03:27;4.80;99.90
9939;DHT22;5008;50.656;7.188;2023-01-24T10:05:55;6.10;99.90
9939;DHT22;5008;50.656;7.188;2023-01-24T10:08:27;6.20;99.90
9939;DHT22;5008;50.656;7.188;2023-01-24T10:11:08;5.70;99.90
9939;DHT22;5008;50.656;7.188;2023-01-24T10:14:16;5.40;99.90
9939;DHT22;5008;50.656;7.188;2023-01-24T10:20:04;5.00;99.90
9939;DHT22;5008;50.656;7.188;2023-01-24T10:25:28;4.90;99.90
9939;DHT22;5008;50.656;7.188;2023-01-24T10:27:59;4.80;99.90
9939;DHT22;5008;50.656;7.188;2023-01-24T10:30:37;4.70;99.90
9939;DHT22;5008;50.656;7.188;2023-01-24T10:33:13;4.80;99.90
9939;DHT22;5008;50.656;7.188;2023-01-24T10:35:52;4.80;99.90
9939;DHT22;5008;50.656;7.188;2023-01-24T10:38:20;4.90;99.90
9939;DHT22;5008;50.656;7.188;2023-01-24T10:40:54;4.90;99.90
9939;DHT22;5008;50.656;7.188;2023-01-24T10:43:24;4.90;99.90
9939;DHT22;5008;50.656;7.188;2023-01-24T10:46:15;4.80;99.90
9939;DHT22;5008;50.656;7.188;2023-01-24T10:48:46;4.90;99.90
9939;DHT22;5008;50.656;7.188;2023-01-24T10:51:18;4.90;99.90
9939;DHT22;5008;50.656;7.188;2023-01-24T10:53:46;4.90;99.90
9939;DHT22;5008;50.656;7.188;2023-01-24T10:56:14;4.80;99.90
9939;DHT22;5008;50.656;7.188;2023-01-24T10:58:43;4.90;99.90
9939;DHT22;5008;50.656;7.188;2023-01-24T11:01:17;4.90;99.90
9939;DHT22;5008;50.656;7.188;2023-01-24T11:03:45;4.90;99.90
9939;DHT22;5008;50.656;7.188;2023-01-24T11:06:33;4.90;99.90
9939;DHT22;5008;50.656;7.188;2023-01-24T11:09:03;4.90;99.90
9939;DHT22;5008;50.656;7.188;2023-01-24T11:11:32;5.00;99.90
9939;DHT22;5008;50.656;7.188;2023-01-24T11:14:00;4.90;99.90
9939;DHT22;5008;50.656;7.188;2023-01-24T11:16:32;5.00;99.90
9939;DHT22;5008;50.656;7.188;2023-01-24T11:19:01;5.00;99.90
9939;DHT22;5008;50.656;7.188;2023-01-24T11:21:30;5.00;99.90
9939;DHT22;5008;50.656;7.188;2023-01-24T11:24:11;5.00;99.90
9939;DHT22;5008;50.656;7.188;2023-01-24T11:26:53;4.90;99.90
9939;DHT22;5008;50.656;7.188;2023-01-24T11:29:20;5.00;99.90
9939;DHT22;5008;50.656;7.188;2023-01-24T11:31:48;5.00;99.90
9939;DHT22;5008;50.656;7.188;2023-01-24T11:34:41;5.10;99.90
9939;DHT22;5008;50.656;7.188;2023-01-24T11:37:38;5.10;99.90
9939;DHT22;5008;50.656;7.188;2023-01-24T11:40:27;5.10;99.90
9939;DHT22;5008;50.656;7.188;2023-01-24T11:43:03;5.20;99.90
9939;DHT22;5008;50.656;7.188;2023-01-24T11:48:32;5.20;99.90
9939;DHT22;5008;50.656;7.188;2023-01-24T11:51:05;5.10;99.90
9939;DHT22;5008;50.656;7.188;2023-01-24T11:53:52;5.10;99.90
9939;DHT22;5008;50.656;7.188;2023-01-24T11:56:31;5.00;99.90
9939;DHT22;5008;50.656;7.188;2023-01-24T11:59:09;5.10;99.90
9939;DHT22;5008;50.656;7.188;2023-01-24T12:01:49;5.20;99.90
9939;DHT22;5008;50.656;7.188;2023-01-24T12:07:17;5.10;99.90
9939;DHT22;5008;50.656;7.188;2023-01-24T12:09:57;5.10;99.90
9939;DHT22;5008;50.656;7.188;2023-01-24T12:12:29;5.20;99.90
9939;DHT22;5008;50.656;7.188;2023-01-24T12:15:08;5.10;99.90
9939;DHT22;5008;50.656;7.188;2023-01-24T12:17:57;5.00;99.90
9939;DHT22;5008;50.656;7.188;2023-01-24T12:20:52;5.00;99.90
9939;DHT22;5008;50.656;7.188;2023-01-24T12:23:27;5.00;99.90
9939;DHT22;5008;50.656;7.188;2023-01-24T12:26:01;5.00;99.90
9939;DHT22;5008;50.656;7.188;2023-01-24T12:28:34;5.10;99.90
9939;DHT22;5008;50.656;7.188;2023-01-24T12:31:06;5.10;99.90
9939;DHT22;5008;50.656;7.188;2023-01-24T12:33:42;5.10;99.90
9939;DHT22;5008;50.656;7.188;2023-01-24T12:36:16;5.00;99.90
9939;DHT22;5008;50.656;7.188;2023-01-24T12:38:46;4.90;99.90
9939;DHT22;5008;50.656;7.188;2023-01-24T12:41:23;5.00;99.90
9939;DHT22;5008;50.656;7.188;2023-01-24T12:43:57;5.10;99.90
9939;DHT22;5008;50.656;7.188;2023-01-24T12:46:29;5.10;99.90
9939;DHT22;5008;50.656;7.188;2023-01-24T12:49:06;5.20;99.90
9939;DHT22;5008;50.656;7.188;2023-01-24T12:51:40;5.10;99.90
9939;DHT22;5008;50.656;7.188;2023-01-24T12:54:11;5.10;99.90
9939;DHT22;5008;50.656;7.188;2023-01-24T12:56:46;5.10;99.90
9939;DHT22;5008;50.656;7.188;2023-01-24T12:59:16;5.10;99.90
9939;DHT22;5008;50.656;7.188;2023-01-24T13:02:16;5.10;99.90
9939;DHT22;5008;50.656;7.188;2023-01-24T13:04:52;5.00;99.90
9939;DHT22;5008;50.656;7.188;2023-01-24T13:07:35;4.90;99.90
9939;DHT22;5008;50.656;7.188;2023-01-24T13:10:13;4.90;99.90
9939;DHT22;5008;50.656;7.188;2023-01-24T13:12:43;4.90;99.90
9939;DHT22;5008;50.656;7.188;2023-01-24T13:15:16;4.90;99.90
9939;DHT22;5008;50.656;7.188;2023-01-24T13:17:55;5.00;99.90
9939;DHT22;5008;50.656;7.188;2023-01-24T13:20:39;5.00;99.90
9939;DHT22;5008;50.656;7.188;2023-01-24T13:23:26;5.00;99.90
9939;DHT22;5008;50.656;7.188;2023-01-24T13:26:20;4.90;99.90
9939;DHT22;5008;50.656;7.188;2023-01-24T13:29:01;4.80;99.90
9939;DHT22;5008;50.656;7.188;2023-01-24T13:31:42;4.90;99.90
9939;DHT22;5008;50.656;7.188;2023-01-24T13:34:15;4.80;99.90
9939;DHT22;5008;50.656;7.188;2023-01-24T13:36:53;4.70;99.90
9939;DHT22;5008;50.656;7.188;2023-01-24T13:39:31;4.70;99.90
9939;DHT22;5008;50.656;7.188;2023-01-24T13:42:04;4.70;99.90
9939;DHT22;5008;50.656;7.188;2023-01-24T13:44:33;4.60;99.90
9939;DHT22;5008;50.656;7.188;2023-01-24T13:47:04;4.70;99.90
9939;DHT22;5008;50.656;7.188;2023-01-24T13:49:37;4.80;99.90
9939;DHT22;5008;50.656;7.188;2023-01-24T13:52:35;4.80;99.90
9939;DHT22;5008;50.656;7.188;2023-01-24T13:55:15;4.80;99.90
9939;DHT22;5008;50.656;7.188;2023-01-24T13:58:17;4.80;99.90
9939;DHT22;5008;50.656;7.188;2023-01-24T14:00:46;4.80;99.90
9939;DHT22;5008;50.656;7.188;2023-01-24T14:03:17;4.80;99.90
9939;DHT22;5008;50.656;7.188;2023-01-24T14:05:54;4.70;99.90
9939;DHT22;5008;50.656;7.188;2023-01-24T14:08:51;4.80;99.90
9939;DHT22;5008;50.656;7.188;2023-01-24T14:14:29;4.80;99.90
9939;DHT22;5008;50.656;7.188;2023-01-24T14:16:59;4.80;99.90
9939;DHT22;5008;50.656;7.188;2023-01-24T14:19:30;4.80;99.90
9939;DHT22;5008;50.656;7.188;2023-01-24T14:22:01;4.70;99.90
9939;DHT22;5008;50.656;7.188;2023-01-24T14:24:33;4.70;99.90
9939;DHT22;5008;50.656;7.188;2023-01-24T14:27:13;4.80;99.90
9939;DHT22;5008;50.656;7.188;2023-01-24T14:29:45;4.80;99.90
9939;DHT22;5008;50.656;7.188;2023-01-24T14:32:20;4.80;99.90
9939;DHT22;5008;50.656;7.188;2023-01-24T14:34:51;4.80;99.90
9939;DHT22;5008;50.656;7.188;2023-01-24T14:37:19;4.80;99.90
9939;DHT22;5008;50.656;7.188;2023-01-24T14:39:50;4.70;99.90
9939;DHT22;5008;50.656;7.188;2023-01-24T14:42:17;4.70;99.90
9939;DHT22;5008;50.656;7.188;2023-01-24T14:44:53;4.70;99.90
9939;DHT22;5008;50.656;7.188;2023-01-24T14:47:23;4.80;99.90
9939;DHT22;5008;50.656;7.188;2023-01-24T14:49:52;4.70;99.90
9939;DHT22;5008;50.656;7.188;2023-01-24T14:52:21;4.70;99.90
9939;DHT22;5008;50.656;7.188;2023-01-24T14:54:50;4.80;99.90
9939;DHT22;5008;50.656;7.188;2023-01-24T14:57:26;4.80;99.90
9939;DHT22;5008;50.656;7.188;2023-01-24T15:00:04;4.80;99.90
9939;DHT22;5008;50.656;7.188;2023-01-24T15:02:31;4.80;99.90
9939;DHT22;5008;50.656;7.188;2023-01-24T15:04:58;4.70;99.90
9939;DHT22;5008;50.656;7.188;2023-01-24T15:07:25;4.70;99.90
9939;DHT22;5008;50.656;7.188;2023-01-24T15:09:53;4.70;99.90
9939;DHT22;5008;50.656;7.188;2023-01-24T15:12:25;4.60;99.90
9939;DHT22;5008;50.656;7.188;2023-01-24T15:15:16;4.50;99.90
9939;DHT22;5008;50.656;7.188;2023-01-24T15:17:45;4.50;99.90
9939;DHT22;5008;50.656;7.188;2023-01-24T15:20:16;4.50;99.90
9939;DHT22;5008;50.656;7.188;2023-01-24T15:22:48;4.60;99.90
9939;DHT22;5008;50.656;7.188;2023-01-24T15:25:19;4.50;99.90
9939;DHT22;5008;50.656;7.188;2023-01-24T15:27:47;4.60;99.90
9939;DHT22;5008;50.656;7.188;2023-01-24T15:30:19;4.60;99.90
9939;DHT22;5008;50.656;7.188;2023-01-24T15:32:47;4.60;99.90
9939;DHT22;5008;50.656;7.188;2023-01-24T15:35:36;4.50;99.90
9939;DHT22;5008;50.656;7.188;2023-01-24T15:38:12;4.40;99.90
9939;DHT22;5008;50.656;7.188;2023-01-24T15:40:49;4.40;99.90
9939;DHT22;5008;50.656;7.188;2023-01-24T15:43:21;4.40;99.90
9939;DHT22;5008;50.656;7.188;2023-01-24T15:46:13;4.40;99.90
9939;DHT22;5008;50.656;7.188;2023-01-24T15:48:59;4.50;99.90
9939;DHT22;5008;50.656;7.188;2023-01-24T15:51:33;4.40;99.90
9939;DHT22;5008;50.656;7.188;2023-01-24T15:54:00;4.60;99.90
9939;DHT22;5008;50.656;7.188;2023-01-24T15:56:27;4.60;99.90
9939;DHT22;5008;50.656;7.188;2023-01-24T15:58:55;4.50;99.90
9939;DHT22;5008;50.656;7.188;2023-01-24T16:01:28;4.40;99.90
9939;DHT22;5008;50.656;7.188;2023-01-24T16:03:58;4.40;99.90
9939;DHT22;5008;50.656;7.188;2023-01-24T16:06:26;4.40;99.90
9939;DHT22;5008;50.656;7.188;2023-01-24T16:08:53;4.40;99.90
9939;DHT22;5008;50.656;7.188;2023-01-24T16:11:19;4.40;99.90
9939;DHT22;5008;50.656;7.188;2023-01-24T16:13:48;4.40;99.90
9939;DHT22;5008;50.656;7.188;2023-01-24T16:16:21;4.50;99.90
9939;DHT22;5008;50.656;7.188;2023-01-24T16:18:50;4.40;99.90
9939;DHT22;5008;50.656;7.188;2023-01-24T16:21:17;4.30;99.90
9939;DHT22;5008;50.656;7.188;2023-01-24T16:23:44;4.30;99.90
9939;DHT22;5008;50.656;7.188;2023-01-24T16:26:19;4.30;99.90
9939;DHT22;5008;50.656;7.188;2023-01-24T16:28:46;4.20;99.90
9939;DHT22;5008;50.656;7.188;2023-01-24T16:31:13;4.30;99.90
9939;DHT22;5008;50.656;7.188;2023-01-24T16:33:40;4.20;99.90
9939;DHT22;5008;50.656;7.188;2023-01-24T16:36:12;4.20;99.90
9939;DHT22;5008;50.656;7.188;2023-01-24T16:38:39;4.30;99.90
9939;DHT22;5008;50.656;7.188;2023-01-24T16:41:06;4.20;99.90
9939;DHT22;5008;50.656;7.188;2023-01-24T16:43:33;4.20;99.90
9939;DHT22;5008;50.656;7.188;2023-01-24T16:46:00;4.20;99.90
9939;DHT22;5008;50.656;7.188;2023-01-24T16:48:29;4.20;99.90
9939;DHT22;5008;50.656;7.188;2023-01-24T16:50:56;4.30;99.90
9939;DHT22;5008;50.656;7.188;2023-01-24T16:53:24;4.40;99.90
9939;DHT22;5008;50.656;7.188;2023-01-24T16:55:55;4.30;99.90
9939;DHT22;5008;50.656;7.188;2023-01-24T16:58:23;4.30;99.90
9939;DHT22;5008;50.656;7.188;2023-01-24T17:00:52;4.30;99.90
9939;DHT22;5008;50.656;7.188;2023-01-24T17:03:20;4.30;99.90
9939;DHT22;5008;50.656;7.188;2023-01-24T17:05:47;4.30;99.90
9939;DHT22;5008;50.656;7.188;2023-01-24T17:08:14;4.20;99.90
9939;DHT22;5008;50.656;7.188;2023-01-24T17:10:42;4.10;99.90
9939;DHT22;5008;50.656;7.188;2023-01-24T17:13:09;4.20;99.90
9939;DHT22;5008;50.656;7.188;2023-01-24T17:15:36;4.10;99.90
9939;DHT22;5008;50.656;7.188;2023-01-24T17:18:03;4.10;99.90
9939;DHT22;5008;50.656;7.188;2023-01-24T17:20:30;4.10;99.90
9939;DHT22;5008;50.656;7.188;2023-01-24T17:22:57;4.10;99.90
9939;DHT22;5008;50.656;7.188;2023-01-24T17:25:25;4.10;99.90
9939;DHT22;5008;50.656;7.188;2023-01-24T17:27:54;4.10;99.90
9939;DHT22;5008;50.656;7.188;2023-01-24T17:30:21;4.10;99.90
9939;DHT22;5008;50.656;7.188;2023-01-24T17:32:48;4.10;99.90
9939;DHT22;5008;50.656;7.188;2023-01-24T17:35:15;4.10;99.90
9939;DHT22;5008;50.656;7.188;2023-01-24T17:37:41;4.10;99.90
9939;DHT22;5008;50.656;7.188;2023-01-24T17:40:09;4.10;99.90
9939;DHT22;5008;50.656;7.188;2023-01-24T17:42:37;4.00;99.90
9939;DHT22;5008;50.656;7.188;2023-01-24T17:45:06;4.30;99.90
9939;DHT22;5008;50.656;7.188;2023-01-24T17:47:33;4.90;99.90
9939;DHT22;5008;50.656;7.188;2023-01-24T17:50:00;4.70;99.90
9939;DHT22;5008;50.656;7.188;2023-01-24T17:52:26;4.50;99.90
9939;DHT22;5008;50.656;7.188;2023-01-24T17:54:53;4.30;99.90
9939;DHT22;5008;50.656;7.188;2023-01-24T17:57:21;4.20;99.90
9939;DHT22;5008;50.656;7.188;2023-01-24T17:59:48;4.30;99.90
9939;DHT22;5008;50.656;7.188;2023-01-24T18:02:16;4.20;99.90
9939;DHT22;5008;50.656;7.188;2023-01-24T18:04:43;4.10;99.90
9939;DHT22;5008;50.656;7.188;2023-01-24T18:07:09;4.10;99.90
9939;DHT22;5008;50.656;7.188;2023-01-24T18:09:37;4.10;99.90
9939;DHT22;5008;50.656;7.188;2023-01-24T18:12:03;4.20;99.90
9939;DHT22;5008;50.656;7.188;2023-01-24T18:14:30;4.10;99.90
9939;DHT22;5008;50.656;7.188;2023-01-24T18:16:58;4.10;99.90
9939;DHT22;5008;50.656;7.188;2023-01-24T18:19:26;4.10;99.90
9939;DHT22;5008;50.656;7.188;2023-01-24T18:21:53;4.00;99.90
9939;DHT22;5008;50.656;7.188;2023-01-24T18:24:20;4.00;99.90
9939;DHT22;5008;50.656;7.188;2023-01-24T18:26:46;4.10;99.90
9939;DHT22;5008;50.656;7.188;2023-01-24T18:29:13;4.00;99.90
9939;DHT22;5008;50.656;7.188;2023-01-24T18:31:40;4.00;99.90
9939;DHT22;5008;50.656;7.188;2023-01-24T18:34:09;4.00;99.90
9939;DHT22;5008;50.656;7.188;2023-01-24T18:36:37;4.00;99.90
9939;DHT22;5008;50.656;7.188;2023-01-24T18:39:04;4.00;99.90
9939;DHT22;5008;50.656;7.188;2023-01-24T18:41:31;4.00;99.90
9939;DHT22;5008;50.656;7.188;2023-01-24T18:43:58;4.00;99.90
9939;DHT22;5008;50.656;7.188;2023-01-24T18:46:25;3.90;99.90
9939;DHT22;5008;50.656;7.188;2023-01-24T18:48:53;3.80;99.90
9939;DHT22;5008;50.656;7.188;2023-01-24T18:51:20;3.80;99.90
9939;DHT22;5008;50.656;7.188;2023-01-24T18:53:51;3.80;99.90
9939;DHT22;5008;50.656;7.188;2023-01-24T18:56:18;3.90;99.90
9939;DHT22;5008;50.656;7.188;2023-01-24T18:58:46;3.90;99.90
9939;DHT22;5008;50.656;7.188;2023-01-24T19:01:15;3.90;99.90
9939;DHT22;5008;50.656;7.188;2023-01-24T19:03:42;3.90;99.90
9939;DHT22;5008;50.656;7.188;2023-01-24T19:06:09;3.90;99.90
9939;DHT22;5008;50.656;7.188;2023-01-24T19:08:36;3.90;99.90
9939;DHT22;5008;50.656;7.188;2023-01-24T19:11:10;3.90;99.90
9939;DHT22;5008;50.656;7.188;2023-01-24T19:13:36;3.90;99.90
9939;DHT22;5008;50.656;7.188;2023-01-24T19:16:04;3.90;99.90
9939;DHT22;5008;50.656;7.188;2023-01-24T19:18:30;3.90;99.90
9939;DHT22;5008;50.656;7.188;2023-01-24T19:21:03;3.90;99.90
9939;DHT22;5008;50.656;7.188;2023-01-24T19:23:30;3.80;99.90
9939;DHT22;5008;50.656;7.188;2023-01-24T19:25:58;3.90;99.90
9939;DHT22;5008;50.656;7.188;2023-01-24T19:28:26;3.90;99.90
9939;DHT22;5008;50.656;7.188;2023-01-24T19:30:53;3.90;99.90
9939;DHT22;5008;50.656;7.188;2023-01-24T19:33:20;3.90;99.90
9939;DHT22;5008;50.656;7.188;2023-01-24T19:35:48;3.90;99.90
9939;DHT22;5008;50.656;7.188;2023-01-24T19:38:15;3.90;99.90
9939;DHT22;5008;50.656;7.188;2023-01-24T19:40:42;3.90;99.90
9939;DHT22;5008;50.656;7.188;2023-01-24T19:43:09;3.80;99.90
9939;DHT22;5008;50.656;7.188;2023-01-24T19:45:39;3.80;99.90
9939;DHT22;5008;50.656;7.188;2023-01-24T19:48:06;3.80;99.90
9939;DHT22;5008;50.656;7.188;2023-01-24T19:50:33;3.70;99.90
9939;DHT22;5008;50.656;7.188;2023-01-24T19:53:00;3.80;99.90
9939;DHT22;5008;50.656;7.188;2023-01-24T19:55:27;3.80;99.90
9939;DHT22;5008;50.656;7.188;2023-01-24T19:57:53;3.80;99.90
9939;DHT22;5008;50.656;7.188;2023-01-24T20:00:20;3.80;99.90
9939;DHT22;5008;50.656;7.188;2023-01-24T20:02:48;3.80;99.90
9939;DHT22;5008;50.656;7.188;2023-01-24T20:05:15;3.80;99.90
9939;DHT22;5008;50.656;7.188;2023-01-24T20:07:42;3.80;99.90
9939;DHT22;5008;50.656;7.188;2023-01-24T20:10:09;3.80;99.90
9939;DHT22;5008;50.656;7.188;2023-01-24T20:12:37;3.80;99.90
9939;DHT22;5008;50.656;7.188;2023-01-24T20:15:06;3.80;99.90
9939;DHT22;5008;50.656;7.188;2023-01-24T20:17:33;3.90;99.90
9939;DHT22;5008;50.656;7.188;2023-01-24T20:20:02;3.90;99.90
9939;DHT22;5008;50.656;7.188;2023-01-24T20:22:29;3.90;99.90
9939;DHT22;5008;50.656;7.188;2023-01-24T20:24:56;3.80;99.90
9939;DHT22;5008;50.656;7.188;2023-01-24T20:27:24;3.80;99.90
9939;DHT22;5008;50.656;7.188;2023-01-24T20:29:51;3.80;99.90
9939;DHT22;5008;50.656;7.188;2023-01-24T20:32:18;3.80;99.90
9939;DHT22;5008;50.656;7.188;2023-01-24T20:34:44;3.70;99.90
9939;DHT22;5008;50.656;7.188;2023-01-24T20:37:13;3.70;99.90
9939;DHT22;5008;50.656;7.188;2023-01-24T20:39:40;3.70;99.90
9939;DHT22;5008;50.656;7.188;2023-01-24T20:42:07;3.70;99.90
9939;DHT22;5008;50.656;7.188;2023-01-24T20:44:34;3.70;99.90
9939;DHT22;5008;50.656;7.188;2023-01-24T20:47:00;3.80;99.90
9939;DHT22;5008;50.656;7.188;2023-01-24T20:49:27;3.80;99.90
9939;DHT22;5008;50.656;7.188;2023-01-24T20:51:54;3.80;99.90
9939;DHT22;5008;50.656;7.188;2023-01-24T20:54:23;3.70;99.90
9939;DHT22;5008;50.656;7.188;2023-01-24T20:56:50;3.70;99.90
9939;DHT22;5008;50.656;7.188;2023-01-24T20:59:21;3.70;99.90
9939;DHT22;5008;50.656;7.188;2023-01-24T21:01:48;3.80;99.90
9939;DHT22;5008;50.656;7.188;2023-01-24T21:04:15;3.70;99.90
9939;DHT22;5008;50.656;7.188;2023-01-24T21:06:41;3.70;99.90
9939;DHT22;5008;50.656;7.188;2023-01-24T21:09:12;3.70;99.90
9939;DHT22;5008;50.656;7.188;2023-01-24T21:11:41;3.60;99.90
9939;DHT22;5008;50.656;7.188;2023-01-24T21:14:11;3.60;99.90
9939;DHT22;5008;50.656;7.188;2023-01-24T21:16:39;3.70;99.90
9939;DHT22;5008;50.656;7.188;2023-01-24T21:19:09;4.20;99.90
9939;DHT22;5008;50.656;7.188;2023-01-24T21:21:37;4.00;99.90
9939;DHT22;5008;50.656;7.188;2023-01-24T21:24:07;3.90;99.90
9939;DHT22;5008;50.656;7.188;2023-01-24T21:26:36;3.80;99.90
9939;DHT22;5008;50.656;7.188;2023-01-24T21:29:04;3.80;99.90
9939;DHT22;5008;50.656;7.188;2023-01-24T21:31:31;3.70;99.90
9939;DHT22;5008;50.656;7.188;2023-01-24T21:33:58;3.70;99.90
9939;DHT22;5008;50.656;7.188;2023-01-24T21:36:25;3.70;99.90
9939;DHT22;5008;50.656;7.188;2023-01-24T21:38:57;3.70;99.90
9939;DHT22;5008;50.656;7.188;2023-01-24T21:41:24;3.70;99.90
9939;DHT22;5008;50.656;7.188;2023-01-24T21:44:09;3.70;99.90
9939;DHT22;5008;50.656;7.188;2023-01-24T21:46:36;3.70;99.90
9939;DHT22;5008;50.656;7.188;2023-01-24T21:49:03;3.70;99.90
9939;DHT22;5008;50.656;7.188;2023-01-24T21:51:36;3.70;99.90
9939;DHT22;5008;50.656;7.188;2023-01-24T21:54:04;3.70;99.90